createdAt,value
2019-03-01T00:01:30.647Z,7.60
2019-03-01T00:04:20.401Z,8.17
2019-03-01T00:07:10.551Z,7.50
2019-03-01T00:10:21.580Z,7.43
2019-03-01T00:13:09.041Z,7.70
2019-03-01T00:16:13.904Z,7.63
2019-03-01T00:19:22.405Z,7.60
2019-03-01T00:22:36.216Z,7.80
2019-03-01T00:25:35.791Z,8.13
2019-03-01T00:28:31.806Z,8.50
2019-03-01T00:31:36.270Z,8.07
2019-03-01T00:34:20.019Z,7.10
2019-03-01T00:37:12.980Z,8.17
2019-03-01T00:40:31.186Z,7.13
2019-03-01T00:43:58.713Z,8.23
2019-03-01T00:46:26.271Z,7.70
2019-03-01T00:48:53.830Z,8.47
2019-03-01T00:51:21.402Z,7.97
2019-03-01T00:53:48.954Z,7.73
2019-03-01T00:56:16.542Z,8.73
2019-03-01T00:58:44.134Z,8.60
2019-03-01T01:01:11.704Z,8.47
2019-03-01T01:03:39.265Z,8.03
2019-03-01T01:06:06.819Z,8.63
2019-03-01T01:08:34.326Z,9.03
2019-03-01T01:11:01.915Z,7.73
2019-03-01T01:13:29.505Z,9.10
2019-03-01T01:15:57.087Z,9.40
2019-03-01T01:18:24.646Z,9.00
2019-03-01T01:20:52.311Z,9.40
2019-03-01T01:23:19.853Z,9.53
2019-03-01T01:25:47.507Z,9.00
2019-03-01T01:28:15.061Z,9.77
2019-03-01T01:30:42.619Z,10.50
2019-03-01T01:33:10.119Z,10.70
2019-03-01T01:35:37.700Z,10.50
2019-03-01T01:38:05.245Z,10.13
2019-03-01T01:40:32.770Z,12.07
2019-03-01T01:43:00.297Z,12.33
2019-03-01T01:45:27.882Z,11.97
2019-03-01T01:47:55.503Z,12.37
2019-03-01T01:50:23.138Z,11.97
2019-03-01T01:52:50.643Z,12.63
2019-03-01T01:55:18.217Z,13.13
2019-03-01T01:57:45.744Z,14.27
2019-03-01T02:00:13.370Z,14.20
2019-03-01T02:02:41.109Z,14.53
2019-03-01T02:05:08.800Z,14.13
2019-03-01T02:07:36.347Z,14.13
2019-03-01T02:10:04.390Z,14.47
2019-03-01T02:12:31.933Z,14.57
2019-03-01T02:14:59.503Z,13.97
2019-03-01T02:17:27.079Z,14.30
2019-03-01T02:19:54.681Z,15.10
2019-03-01T02:22:22.299Z,15.20
2019-03-01T02:24:49.851Z,14.93
2019-03-01T02:27:20.807Z,15.47
2019-03-01T02:29:48.352Z,15.27
2019-03-01T02:32:17.679Z,15.47
2019-03-01T02:34:45.216Z,14.90
2019-03-01T02:37:12.764Z,16.30
2019-03-01T02:39:40.329Z,14.97
2019-03-01T02:42:07.895Z,22.20
2019-03-01T02:44:35.469Z,21.33
2019-03-01T02:47:03.012Z,23.50
2019-03-01T02:49:30.543Z,24.27
2019-03-01T02:51:58.099Z,25.27
2019-03-01T02:54:25.624Z,28.23
2019-03-01T02:56:53.192Z,29.20
2019-03-01T02:59:20.744Z,28.70
2019-03-01T03:01:48.310Z,31.03
2019-03-01T03:04:15.864Z,31.13
2019-03-01T03:06:48.666Z,32.03
2019-03-01T03:09:16.180Z,32.80
2019-03-01T03:11:43.765Z,35.00
2019-03-01T03:14:11.295Z,35.57
2019-03-01T03:16:38.851Z,37.67
2019-03-01T03:19:06.392Z,38.90
2019-03-01T03:21:33.934Z,40.73
2019-03-01T03:24:01.462Z,41.97
2019-03-01T03:26:28.992Z,44.97
2019-03-01T03:28:56.503Z,44.63
2019-03-01T03:31:24.187Z,44.37
2019-03-01T03:33:51.695Z,43.73
2019-03-01T03:36:19.270Z,45.00
2019-03-01T03:38:46.837Z,45.87
2019-03-01T03:41:14.419Z,47.17
2019-03-01T03:43:43.802Z,48.73
2019-03-01T03:46:11.354Z,50.40
2019-03-01T03:48:38.916Z,53.30
2019-03-01T03:51:06.433Z,54.63
2019-03-01T03:53:34.027Z,51.73
2019-03-01T03:56:01.534Z,52.80
2019-03-01T03:58:29.105Z,54.90
2019-03-01T04:00:56.637Z,53.13
2019-03-01T04:03:24.294Z,54.10
2019-03-01T04:05:51.856Z,59.77
2019-03-01T04:08:19.592Z,66.77
2019-03-01T04:10:47.145Z,72.77
2019-03-01T04:13:16.816Z,82.77
2019-03-01T04:15:44.169Z,87.77
2019-03-01T04:18:11.780Z,85.10
2019-03-01T04:20:39.301Z,84.40
2019-03-01T04:23:06.915Z,85.27
2019-03-01T04:25:34.472Z,89.23
2019-03-01T04:28:02.042Z,84.87
2019-03-01T04:30:29.570Z,85.30
2019-03-01T04:32:57.100Z,87.30
2019-03-01T04:35:24.551Z,82.83
2019-03-01T04:37:52.203Z,82.47
2019-03-01T04:40:19.772Z,82.70
2019-03-01T04:42:47.365Z,80.60
2019-03-01T04:45:14.920Z,77.40
2019-03-01T04:47:42.473Z,73.73
2019-03-01T04:50:10.021Z,69.40
2019-03-01T04:52:40.049Z,66.63
2019-03-01T04:55:21.878Z,61.90
2019-03-01T04:57:49.378Z,57.73
2019-03-01T05:00:18.957Z,58.40
2019-03-01T05:02:46.502Z,51.33
2019-03-01T05:05:15.162Z,48.60
2019-03-01T05:07:42.702Z,51.40
2019-03-01T05:10:10.937Z,47.37
2019-03-01T05:12:38.522Z,45.63
2019-03-01T05:15:07.029Z,45.93
2019-03-01T05:17:34.580Z,45.13
2019-03-01T05:20:02.176Z,40.93
2019-03-01T05:22:29.711Z,41.97
2019-03-01T05:24:57.298Z,43.07
2019-03-01T05:27:25.930Z,42.37
2019-03-01T05:29:53.446Z,43.57
2019-03-01T05:32:20.978Z,41.93
2019-03-01T05:34:48.544Z,37.83
2019-03-01T05:37:16.061Z,38.10
2019-03-01T05:39:46.414Z,36.77
2019-03-01T05:42:24.526Z,37.73
2019-03-01T05:44:52.151Z,39.23
2019-03-01T05:47:19.718Z,38.33
2019-03-01T05:49:47.363Z,39.90
2019-03-01T05:52:14.980Z,41.63
2019-03-01T05:54:42.619Z,42.57
2019-03-01T05:57:12.253Z,40.77
2019-03-01T05:59:39.904Z,41.93
2019-03-01T06:02:50.459Z,41.83
2019-03-01T06:05:21.430Z,39.53
2019-03-01T06:08:11.054Z,39.50
2019-03-01T06:10:58.967Z,39.40
2019-03-01T06:14:17.077Z,41.27
2019-03-01T06:17:11.697Z,40.90
2019-03-01T06:20:13.622Z,42.60
2019-03-01T06:23:28.489Z,40.07
2019-03-01T06:26:26.665Z,38.00
2019-03-01T06:29:21.825Z,37.80
2019-03-01T06:32:28.322Z,38.30
2019-03-01T06:35:23.641Z,36.97
2019-03-01T06:38:52.369Z,37.07
2019-03-01T06:41:37.380Z,35.50
2019-03-01T06:44:33.243Z,34.93
2019-03-01T06:47:31.090Z,35.00
2019-03-01T06:50:08.614Z,38.13
2019-03-01T06:52:36.372Z,37.13
2019-03-01T06:55:04.299Z,37.17
2019-03-01T06:57:31.822Z,36.87
2019-03-01T06:59:59.457Z,37.27
2019-03-01T07:02:45.326Z,36.97
2019-03-01T07:05:12.905Z,35.20
2019-03-01T07:07:40.377Z,36.00
2019-03-01T07:10:08.005Z,37.03
2019-03-01T07:12:35.515Z,35.23
2019-03-01T07:15:03.906Z,36.00
2019-03-01T07:17:31.437Z,36.10
2019-03-01T07:19:59.013Z,35.83
2019-03-01T07:22:26.543Z,34.03
2019-03-01T07:24:54.133Z,34.10
2019-03-01T07:27:21.738Z,32.07
2019-03-01T07:29:49.299Z,33.07
2019-03-01T07:32:16.800Z,31.10
2019-03-01T07:34:44.342Z,30.43
2019-03-01T07:37:11.945Z,28.97
2019-03-01T07:39:39.480Z,30.27
2019-03-01T07:42:07.050Z,30.40
2019-03-01T07:44:34.583Z,29.33
2019-03-01T07:47:05.204Z,28.80
2019-03-01T07:49:32.798Z,28.37
2019-03-01T07:52:05.026Z,27.40
2019-03-01T07:54:32.134Z,27.13
2019-03-01T07:56:59.747Z,26.40
2019-03-01T07:59:31.812Z,26.10
2019-03-01T08:02:00.765Z,24.83
2019-03-01T08:04:29.682Z,26.33
2019-03-01T08:06:57.266Z,26.23
2019-03-01T08:09:24.868Z,27.10
2019-03-01T08:11:52.386Z,27.17
2019-03-01T08:14:19.947Z,27.03
2019-03-01T08:16:47.481Z,27.13
2019-03-01T08:19:16.150Z,27.37
2019-03-01T08:21:45.895Z,27.97
2019-03-01T08:24:14.926Z,26.93
2019-03-01T08:26:42.437Z,28.10
2019-03-01T08:29:09.959Z,27.40
2019-03-01T08:31:37.502Z,28.13
2019-03-01T08:34:05.025Z,27.77
2019-03-01T08:36:33.993Z,26.20
2019-03-01T08:39:04.885Z,25.47
2019-03-01T08:41:31.081Z,25.80
2019-03-01T08:44:00.284Z,25.53
2019-03-01T08:46:27.900Z,24.60
2019-03-01T08:48:55.432Z,24.53
2019-03-01T08:51:26.553Z,25.03
2019-03-01T08:53:52.336Z,23.20
2019-03-01T08:56:25.890Z,22.10
2019-03-01T08:58:49.230Z,20.53
2019-03-01T09:01:17.014Z,18.87
2019-03-01T09:03:51.925Z,19.70
2019-03-01T09:06:19.420Z,19.80
2019-03-01T09:08:47.001Z,18.00
2019-03-01T09:11:14.580Z,17.80
2019-03-01T09:13:42.398Z,17.03
2019-03-01T09:16:10.028Z,18.70
2019-03-01T09:18:37.594Z,19.57
2019-03-01T09:21:06.194Z,19.77
2019-03-01T09:23:33.838Z,21.00
2019-03-01T09:26:01.383Z,23.27
2019-03-01T09:28:28.932Z,24.27
2019-03-01T09:30:56.419Z,19.93
2019-03-01T09:33:23.978Z,23.63
2019-03-01T09:36:14.410Z,23.17
2019-03-01T09:38:44.171Z,21.87
2019-03-01T09:41:11.769Z,20.57
2019-03-01T09:43:39.305Z,20.70
2019-03-01T09:46:06.823Z,18.77
2019-03-01T09:48:34.376Z,18.90
2019-03-01T09:51:01.964Z,19.40
2019-03-01T09:53:30.534Z,18.43
2019-03-01T09:56:00.135Z,17.93
2019-03-01T09:58:27.725Z,17.60
2019-03-01T10:00:59.401Z,18.43
2019-03-01T10:03:26.935Z,20.23
2019-03-01T10:05:54.503Z,20.10
2019-03-01T10:08:23.676Z,21.80
2019-03-01T10:10:51.193Z,23.37
2019-03-01T10:13:18.719Z,26.00
2019-03-01T10:15:46.331Z,24.17
2019-03-01T10:18:13.878Z,24.23
2019-03-01T10:20:41.449Z,25.07
2019-03-01T10:23:10.573Z,23.53
2019-03-01T10:25:38.143Z,24.77
2019-03-01T10:28:08.023Z,24.00
2019-03-01T10:30:35.547Z,24.87
2019-03-01T10:33:03.186Z,24.37
2019-03-01T10:35:30.730Z,24.20
2019-03-01T10:37:58.254Z,23.40
2019-03-01T10:40:25.837Z,22.97
2019-03-01T10:42:53.351Z,22.00
2019-03-01T10:45:22.767Z,21.50
2019-03-01T10:47:50.315Z,21.17
2019-03-01T10:50:17.903Z,22.43
2019-03-01T10:52:45.420Z,21.10
2019-03-01T10:55:14.736Z,21.77
2019-03-01T10:57:42.243Z,20.47
2019-03-01T11:00:16.364Z,21.63
2019-03-01T11:02:44.264Z,19.87
2019-03-01T11:05:11.784Z,20.87
2019-03-01T11:07:39.251Z,21.87
2019-03-01T11:10:08.145Z,19.97
2019-03-01T11:12:35.691Z,19.23
2019-03-01T11:15:03.835Z,20.53
2019-03-01T11:17:31.278Z,19.33
2019-03-01T11:19:58.839Z,18.27
2019-03-01T11:22:26.395Z,18.63
2019-03-01T11:24:53.918Z,17.67
2019-03-01T11:27:21.506Z,16.63
2019-03-01T11:29:49.037Z,15.03
2019-03-01T11:32:16.560Z,16.20
2019-03-01T11:34:44.130Z,16.33
2019-03-01T11:37:11.680Z,15.43
2019-03-01T11:39:39.262Z,16.03
2019-03-01T11:42:06.811Z,14.70
2019-03-01T11:44:34.378Z,15.33
2019-03-01T11:47:01.957Z,15.80
2019-03-01T11:49:29.491Z,14.50
2019-03-01T11:51:57.055Z,15.90
2019-03-01T11:54:24.594Z,15.17
2019-03-01T11:56:53.588Z,15.43
2019-03-01T11:59:21.448Z,14.83
2019-03-01T12:01:48.977Z,15.13
2019-03-01T12:04:16.518Z,14.67
2019-03-01T12:06:44.076Z,15.33
2019-03-01T12:09:11.660Z,14.63
2019-03-01T12:11:39.214Z,14.47
2019-03-01T12:14:06.898Z,15.47
2019-03-01T12:16:34.458Z,14.23
2019-03-01T12:19:01.991Z,13.87
2019-03-01T12:21:29.529Z,14.07
2019-03-01T12:23:57.114Z,13.53
2019-03-01T12:26:24.623Z,13.40
2019-03-01T12:28:52.090Z,12.87
2019-03-01T12:31:19.636Z,12.43
2019-03-01T12:33:47.146Z,14.30
2019-03-01T12:36:14.685Z,14.43
2019-03-01T12:38:44.394Z,13.60
2019-03-01T12:41:11.999Z,13.50
2019-03-01T12:43:39.537Z,12.73
2019-03-01T12:46:07.087Z,12.43
2019-03-01T12:48:34.610Z,13.50
2019-03-01T12:51:02.150Z,12.23
2019-03-01T12:53:29.591Z,13.53
2019-03-01T12:55:57.118Z,12.67
2019-03-01T12:58:24.601Z,12.37
2019-03-01T13:01:03.570Z,13.87
2019-03-01T13:03:31.138Z,14.83
2019-03-01T13:06:00.588Z,14.90
2019-03-01T13:08:30.461Z,13.43
2019-03-01T13:10:58.094Z,11.60
2019-03-01T13:13:28.361Z,10.43
2019-03-01T13:15:55.887Z,8.73
2019-03-01T13:18:23.418Z,8.77
2019-03-01T13:20:50.961Z,6.23
2019-03-01T13:23:18.500Z,6.20
2019-03-01T13:25:46.090Z,6.27
2019-03-01T13:28:13.631Z,5.73
2019-03-01T13:30:41.196Z,5.27
2019-03-01T13:33:08.726Z,5.13
2019-03-01T13:35:36.256Z,4.97
2019-03-01T13:38:04.100Z,5.67
2019-03-01T13:40:31.881Z,4.83
2019-03-01T13:42:59.396Z,5.33
2019-03-01T13:45:26.841Z,4.70
2019-03-01T13:47:54.409Z,5.03
2019-03-01T13:50:24.018Z,5.17
2019-03-01T13:52:51.580Z,5.27
2019-03-01T13:55:22.183Z,5.47
2019-03-01T13:57:50.056Z,5.53
2019-03-01T14:00:17.991Z,5.47
2019-03-01T14:02:46.908Z,6.17
2019-03-01T14:05:17.029Z,6.00
2019-03-01T14:07:48.348Z,6.97
2019-03-01T14:10:17.436Z,7.30
2019-03-01T14:12:44.971Z,6.83
2019-03-01T14:15:14.239Z,5.37
2019-03-01T14:17:41.759Z,5.07
2019-03-01T14:20:19.057Z,4.90
2019-03-01T14:22:44.116Z,4.60
2019-03-01T14:25:13.687Z,4.93
2019-03-01T14:27:41.216Z,4.40
2019-03-01T14:30:11.769Z,4.73
2019-03-01T14:32:39.333Z,4.33
2019-03-01T14:35:07.254Z,4.63
2019-03-01T14:37:34.857Z,4.07
2019-03-01T14:40:02.405Z,4.43
2019-03-01T14:42:33.440Z,4.77
2019-03-01T14:45:00.961Z,3.93
2019-03-01T14:47:29.136Z,3.93
2019-03-01T14:50:00.490Z,3.30
2019-03-01T14:52:28.028Z,3.87
2019-03-01T14:54:55.646Z,3.57
2019-03-01T14:57:37.813Z,3.13
2019-03-01T15:00:15.360Z,2.70
2019-03-01T15:03:32.203Z,2.97
2019-03-01T15:06:01.086Z,3.13
2019-03-01T15:08:28.851Z,3.23
2019-03-01T15:10:59.447Z,3.40
2019-03-01T15:13:31.463Z,3.23
2019-03-01T15:16:01.120Z,3.47
2019-03-01T15:18:28.886Z,3.33
2019-03-01T15:21:02.554Z,3.30
2019-03-01T15:23:30.506Z,3.00
2019-03-01T15:26:02.890Z,2.77
2019-03-01T15:28:32.512Z,2.70
2019-03-01T15:31:02.950Z,2.13
2019-03-01T15:33:33.682Z,2.27
2019-03-01T15:36:03.729Z,2.10
2019-03-01T15:38:33.122Z,2.40
2019-03-01T15:41:06.392Z,2.33
2019-03-01T15:43:37.203Z,2.30
2019-03-01T15:46:11.520Z,2.50
2019-03-01T15:48:43.026Z,2.47
2019-03-01T15:51:10.596Z,2.30
2019-03-01T15:53:40.610Z,2.60
2019-03-01T15:56:14.104Z,2.60
2019-03-01T15:58:47.808Z,2.60
2019-03-01T16:01:15.347Z,2.40
2019-03-01T16:03:43.130Z,2.40
2019-03-01T16:06:14.099Z,2.20
2019-03-01T16:08:48.059Z,2.23
2019-03-01T16:11:16.764Z,2.30
2019-03-01T16:13:48.017Z,2.13
2019-03-01T16:16:15.119Z,2.00
2019-03-01T16:18:42.757Z,2.00
2019-03-01T16:21:10.317Z,2.30
2019-03-01T16:23:38.035Z,2.37
2019-03-01T16:26:08.082Z,1.90
2019-03-01T16:29:07.215Z,2.37
2019-03-01T16:31:32.120Z,2.93
2019-03-01T16:34:04.374Z,2.00
2019-03-01T16:36:41.105Z,2.00
2019-03-01T16:39:13.940Z,2.10
2019-03-01T16:41:42.921Z,2.30
2019-03-01T16:44:11.087Z,2.23
2019-03-01T16:46:40.924Z,2.30
2019-03-01T16:49:08.762Z,2.97
2019-03-01T16:51:38.658Z,2.90
2019-03-01T16:54:06.320Z,3.00
2019-03-01T16:56:34.597Z,2.90
2019-03-01T16:59:07.138Z,3.10
2019-03-01T17:01:35.923Z,2.33
2019-03-01T17:04:03.714Z,2.33
2019-03-01T17:06:38.055Z,3.03
2019-03-01T17:09:15.598Z,2.40
2019-03-01T17:11:44.455Z,2.90
2019-03-01T17:14:15.962Z,2.57
2019-03-01T17:16:43.851Z,2.17
2019-03-01T17:19:14.568Z,2.40
2019-03-01T17:21:42.145Z,2.33
2019-03-01T17:24:12.329Z,2.37
2019-03-01T17:26:43.566Z,2.10
2019-03-01T17:29:14.767Z,2.10
2019-03-01T17:31:45.085Z,2.17
2019-03-01T17:34:12.679Z,2.10
2019-03-01T17:36:42.237Z,2.00
2019-03-01T17:39:10.837Z,1.87
2019-03-01T17:41:48.238Z,1.83
2019-03-01T17:44:23.954Z,2.10
2019-03-01T17:46:54.164Z,1.83
2019-03-01T17:49:23.581Z,1.77
2019-03-01T17:51:56.516Z,1.70
2019-03-01T17:54:23.203Z,1.80
2019-03-01T17:56:57.199Z,2.30
2019-03-01T17:59:25.450Z,2.40
2019-03-01T18:01:54.791Z,2.00
2019-03-01T18:04:22.355Z,2.10
2019-03-01T18:06:52.357Z,2.20
2019-03-01T18:09:21.733Z,2.10
2019-03-01T18:11:50.211Z,2.00
2019-03-01T18:14:17.764Z,2.23
2019-03-01T18:16:45.526Z,13.17
2019-03-01T18:19:16.115Z,8.70
2019-03-01T18:21:50.056Z,31.10
2019-03-01T18:24:17.489Z,23.60
2019-03-01T18:26:45.119Z,4.63
2019-03-01T18:29:12.643Z,4.20
2019-03-01T18:31:40.247Z,4.00
2019-03-01T18:34:07.811Z,3.33
2019-03-01T18:36:35.402Z,3.80
2019-03-01T18:39:07.832Z,3.47
2019-03-01T18:41:40.844Z,4.17
2019-03-01T18:44:08.524Z,4.43
2019-03-01T18:46:38.059Z,4.80
2019-03-01T18:49:06.245Z,4.70
2019-03-01T18:51:34.225Z,4.50
2019-03-01T18:54:08.503Z,4.20
2019-03-01T18:56:36.129Z,4.50
2019-03-01T18:59:03.778Z,4.13
2019-03-01T19:01:31.471Z,3.97
2019-03-01T19:03:59.075Z,4.50
2019-03-01T19:06:26.563Z,4.07
2019-03-01T19:08:54.239Z,4.27
2019-03-01T19:11:21.811Z,4.30
2019-03-01T19:13:49.485Z,4.80
2019-03-01T19:16:18.955Z,4.53
2019-03-01T19:18:51.220Z,4.50
2019-03-01T19:21:18.977Z,4.73
2019-03-01T19:23:46.609Z,4.87
2019-03-01T19:26:14.179Z,5.13
2019-03-01T19:28:41.708Z,5.40
2019-03-01T19:31:09.275Z,5.67
2019-03-01T19:33:37.798Z,5.50
2019-03-01T19:36:06.166Z,5.83
2019-03-01T19:38:33.728Z,5.50
2019-03-01T19:41:01.295Z,6.20
2019-03-01T19:43:30.931Z,6.63
2019-03-01T19:45:58.469Z,6.53
2019-03-01T19:48:26.251Z,6.20
2019-03-01T19:50:53.776Z,6.50
2019-03-01T19:53:21.754Z,8.03
2019-03-01T19:55:59.682Z,8.03
2019-03-01T19:58:29.233Z,8.13
2019-03-01T20:01:08.911Z,7.90
2019-03-01T20:03:42.594Z,9.00
2019-03-01T20:06:11.619Z,9.07
2019-03-01T20:08:39.239Z,8.73
2019-03-01T20:11:06.925Z,9.00
2019-03-01T20:13:34.468Z,9.27
2019-03-01T20:16:02.074Z,8.90
2019-03-01T20:18:32.900Z,9.93
2019-03-01T20:21:05.873Z,9.53
2019-03-01T20:23:34.479Z,8.67
2019-03-01T20:26:07.177Z,10.17
2019-03-01T20:28:35.252Z,13.20
2019-03-01T20:31:05.807Z,11.60
2019-03-01T20:33:33.472Z,11.03
2019-03-01T20:36:04.832Z,11.00
2019-03-01T20:38:37.015Z,10.30
2019-03-01T20:41:07.639Z,10.57
2019-03-01T20:43:41.846Z,10.27
2019-03-01T20:46:08.101Z,10.00
2019-03-01T20:48:38.886Z,11.80
2019-03-01T20:51:09.565Z,10.83
2019-03-01T20:53:37.133Z,14.00
2019-03-01T20:56:09.916Z,13.70
2019-03-01T20:58:40.595Z,13.10
2019-03-01T21:01:07.114Z,12.47
2019-03-01T21:03:37.744Z,11.53
2019-03-01T21:06:10.321Z,11.67
2019-03-01T21:08:44.560Z,12.33
2019-03-01T21:11:16.028Z,11.67
2019-03-01T21:13:53.692Z,12.00
2019-03-01T21:16:24.882Z,12.20
2019-03-01T21:18:52.540Z,11.80
2019-03-01T21:21:25.626Z,11.40
2019-03-01T21:23:56.310Z,32.73
2019-03-01T21:26:51.220Z,28.77
2019-03-01T21:29:17.676Z,14.40
2019-03-01T21:31:45.219Z,12.60
2019-03-01T21:34:14.817Z,12.07
2019-03-01T21:36:42.196Z,11.57
2019-03-01T21:39:10.269Z,12.93
2019-03-01T21:41:37.809Z,12.00
2019-03-01T21:44:10.141Z,12.67
2019-03-01T21:46:35.154Z,12.97
2019-03-01T21:49:02.780Z,12.80
2019-03-01T21:51:30.393Z,12.93
2019-03-01T21:53:59.867Z,11.97
2019-03-01T21:56:27.423Z,12.50
2019-03-01T21:58:56.085Z,12.17
2019-03-01T22:01:23.669Z,12.83
2019-03-01T22:03:51.257Z,11.87
2019-03-01T22:06:20.689Z,12.23
2019-03-01T22:08:48.696Z,12.53
2019-03-01T22:11:17.350Z,13.30
2019-03-01T22:13:44.949Z,13.17
2019-03-01T22:16:13.440Z,14.17
2019-03-01T22:18:41.001Z,13.90
2019-03-01T22:21:08.637Z,13.90
2019-03-01T22:23:38.785Z,14.00
2019-03-01T22:26:09.591Z,13.77
2019-03-01T22:28:36.134Z,13.80
2019-03-01T22:31:04.739Z,14.27
2019-03-01T22:33:32.288Z,14.17
2019-03-01T22:35:59.893Z,14.50
2019-03-01T22:38:27.415Z,14.00
2019-03-01T22:41:00.638Z,14.20
2019-03-01T22:43:30.144Z,14.40
2019-03-01T22:45:57.713Z,14.80
2019-03-01T22:48:26.450Z,15.80
2019-03-01T22:50:54.009Z,15.67
2019-03-01T22:53:21.585Z,15.80
2019-03-01T22:55:49.224Z,15.50
2019-03-01T22:58:16.734Z,15.57
2019-03-01T23:01:16.001Z,14.40
2019-03-01T23:03:46.130Z,14.00
2019-03-01T23:06:14.686Z,14.10
2019-03-01T23:08:44.887Z,14.30
2019-03-01T23:11:13.496Z,14.43
2019-03-01T23:13:41.239Z,13.93
2019-03-01T23:16:08.825Z,14.00
2019-03-01T23:18:45.014Z,13.50
2019-03-01T23:21:12.600Z,13.23
2019-03-01T23:23:40.081Z,13.10
2019-03-01T23:26:07.756Z,13.20
2019-03-01T23:28:35.434Z,12.97
2019-03-01T23:31:03.642Z,14.30
2019-03-01T23:33:32.726Z,14.33
2019-03-01T23:36:00.260Z,13.03
2019-03-01T23:38:27.972Z,13.27
2019-03-01T23:40:55.654Z,13.30
2019-03-01T23:43:23.302Z,13.03
2019-03-01T23:45:53.726Z,14.10
2019-03-01T23:48:20.300Z,14.40
2019-03-01T23:50:47.863Z,13.50
2019-03-01T23:53:15.400Z,12.97
2019-03-01T23:55:42.970Z,15.03
2019-03-01T23:58:12.586Z,15.13
